sensor_id;sensor_type;location;lat;lon;timestamp;P1;durP1;ratioP1;P2;durP2;ratioP2
46439;SDS011;32138;50.966;6.968;2023-07-29T00:00:02;3.75;;;1.40;;
46439;SDS011;32138;50.966;6.968;2023-07-29T00:01:34;3.35;;;1.77;;
46439;SDS011;32138;50.966;6.968;2023-07-29T00:03:05;4.50;;;1.80;;
46439;SDS011;32138;50.966;6.968;2023-07-29T00:04:36;3.97;;;2.20;;
46439;SDS011;32138;50.966;6.968;2023-07-29T00:06:07;2.13;;;1.27;;
46439;SDS011;32138;50.966;6.968;2023-07-29T00:07:39;6.13;;;1.60;;
46439;SDS011;32138;50.966;6.968;2023-07-29T00:09:10;2.80;;;1.83;;
46439;SDS011;32138;50.966;6.968;2023-07-29T00:10:41;4.15;;;1.40;;
46439;SDS011;32138;50.966;6.968;2023-07-29T00:12:11;2.22;;;1.60;;
46439;SDS011;32138;50.966;6.968;2023-07-29T00:13:42;2.60;;;1.80;;
46439;SDS011;32138;50.966;6.968;2023-07-29T00:15:13;2.65;;;1.60;;
46439;SDS011;32138;50.966;6.968;2023-07-29T00:16:44;2.58;;;1.17;;
46439;SDS011;32138;50.966;6.968;2023-07-29T00:18:14;6.60;;;1.73;;
46439;SDS011;32138;50.966;6.968;2023-07-29T00:19:45;3.10;;;1.77;;
46439;SDS011;32138;50.966;6.968;2023-07-29T00:21:16;3.17;;;1.52;;
46439;SDS011;32138;50.966;6.968;2023-07-29T00:22:47;5.10;;;1.50;;
46439;SDS011;32138;50.966;6.968;2023-07-29T00:24:23;4.05;;;1.50;;
46439;SDS011;32138;50.966;6.968;2023-07-29T00:25:54;2.60;;;1.60;;
46439;SDS011;32138;50.966;6.968;2023-07-29T00:27:25;2.42;;;1.15;;
46439;SDS011;32138;50.966;6.968;2023-07-29T00:28:56;2.90;;;1.52;;
46439;SDS011;32138;50.966;6.968;2023-07-29T00:30:27;2.42;;;1.40;;
46439;SDS011;32138;50.966;6.968;2023-07-29T00:31:58;2.10;;;1.55;;
46439;SDS011;32138;50.966;6.968;2023-07-29T00:33:29;3.65;;;1.17;;
46439;SDS011;32138;50.966;6.968;2023-07-29T00:34:59;1.77;;;1.17;;
46439;SDS011;32138;50.966;6.968;2023-07-29T00:36:30;2.33;;;1.30;;
46439;SDS011;32138;50.966;6.968;2023-07-29T00:38:01;2.92;;;1.38;;
46439;SDS011;32138;50.966;6.968;2023-07-29T00:39:32;2.10;;;1.42;;
46439;SDS011;32138;50.966;6.968;2023-07-29T00:41:03;2.38;;;1.20;;
46439;SDS011;32138;50.966;6.968;2023-07-29T00:42:34;3.30;;;1.75;;
46439;SDS011;32138;50.966;6.968;2023-07-29T00:44:05;5.28;;;1.73;;
46439;SDS011;32138;50.966;6.968;2023-07-29T00:45:36;2.75;;;1.58;;
46439;SDS011;32138;50.966;6.968;2023-07-29T00:47:08;2.63;;;1.80;;
46439;SDS011;32138;50.966;6.968;2023-07-29T00:48:39;4.53;;;2.03;;
46439;SDS011;32138;50.966;6.968;2023-07-29T00:50:11;3.85;;;1.60;;
46439;SDS011;32138;50.966;6.968;2023-07-29T00:51:43;2.97;;;1.50;;
46439;SDS011;32138;50.966;6.968;2023-07-29T00:53:14;1.80;;;1.30;;
46439;SDS011;32138;50.966;6.968;2023-07-29T00:54:45;3.20;;;1.77;;
46439;SDS011;32138;50.966;6.968;2023-07-29T00:56:15;4.05;;;1.75;;
46439;SDS011;32138;50.966;6.968;2023-07-29T00:57:46;3.40;;;1.50;;
46439;SDS011;32138;50.966;6.968;2023-07-29T00:59:19;3.97;;;1.70;;
46439;SDS011;32138;50.966;6.968;2023-07-29T01:00:50;3.67;;;1.83;;
46439;SDS011;32138;50.966;6.968;2023-07-29T01:02:21;4.03;;;1.50;;
46439;SDS011;32138;50.966;6.968;2023-07-29T01:03:52;4.13;;;1.85;;
46439;SDS011;32138;50.966;6.968;2023-07-29T01:05:23;10.20;;;1.80;;
46439;SDS011;32138;50.966;6.968;2023-07-29T01:11:03;6.95;;;1.90;;
46439;SDS011;32138;50.966;6.968;2023-07-29T01:15:07;2.28;;;1.67;;
46439;SDS011;32138;50.966;6.968;2023-07-29T01:17:03;3.55;;;2.30;;
46439;SDS011;32138;50.966;6.968;2023-07-29T01:18:39;3.15;;;2.30;;
46439;SDS011;32138;50.966;6.968;2023-07-29T01:20:14;3.83;;;2.10;;
46439;SDS011;32138;50.966;6.968;2023-07-29T01:21:46;4.50;;;1.83;;
46439;SDS011;32138;50.966;6.968;2023-07-29T01:23:23;3.70;;;2.00;;
46439;SDS011;32138;50.966;6.968;2023-07-29T01:25:04;2.72;;;1.77;;
46439;SDS011;32138;50.966;6.968;2023-07-29T01:26:35;3.05;;;1.88;;
46439;SDS011;32138;50.966;6.968;2023-07-29T01:28:06;1.90;;;1.48;;
46439;SDS011;32138;50.966;6.968;2023-07-29T01:29:37;5.40;;;2.75;;
46439;SDS011;32138;50.966;6.968;2023-07-29T01:31:27;4.30;;;2.45;;
46439;SDS011;32138;50.966;6.968;2023-07-29T01:33:17;3.45;;;2.50;;
46439;SDS011;32138;50.966;6.968;2023-07-29T01:37:02;5.38;;;3.38;;
46439;SDS011;32138;50.966;6.968;2023-07-29T01:38:40;3.33;;;2.42;;
46439;SDS011;32138;50.966;6.968;2023-07-29T01:40:12;3.85;;;2.30;;
46439;SDS011;32138;50.966;6.968;2023-07-29T01:41:43;3.38;;;2.22;;
46439;SDS011;32138;50.966;6.968;2023-07-29T01:43:15;4.22;;;2.40;;
46439;SDS011;32138;50.966;6.968;2023-07-29T01:44:48;5.00;;;2.80;;
46439;SDS011;32138;50.966;6.968;2023-07-29T01:46:19;3.53;;;2.60;;
46439;SDS011;32138;50.966;6.968;2023-07-29T01:47:50;5.80;;;2.85;;
46439;SDS011;32138;50.966;6.968;2023-07-29T01:49:21;5.35;;;3.15;;
46439;SDS011;32138;50.966;6.968;2023-07-29T01:50:52;5.82;;;2.55;;
46439;SDS011;32138;50.966;6.968;2023-07-29T01:52:23;4.82;;;3.03;;
46439;SDS011;32138;50.966;6.968;2023-07-29T01:53:54;4.80;;;2.75;;
46439;SDS011;32138;50.966;6.968;2023-07-29T01:55:25;5.80;;;2.83;;
46439;SDS011;32138;50.966;6.968;2023-07-29T01:56:56;5.97;;;3.08;;
46439;SDS011;32138;50.966;6.968;2023-07-29T01:58:27;6.93;;;3.45;;
46439;SDS011;32138;50.966;6.968;2023-07-29T01:59:57;6.20;;;2.72;;
46439;SDS011;32138;50.966;6.968;2023-07-29T02:01:29;4.18;;;2.83;;
46439;SDS011;32138;50.966;6.968;2023-07-29T02:03:01;5.55;;;2.83;;
46439;SDS011;32138;50.966;6.968;2023-07-29T02:04:31;3.35;;;2.15;;
46439;SDS011;32138;50.966;6.968;2023-07-29T02:06:02;6.72;;;2.67;;
46439;SDS011;32138;50.966;6.968;2023-07-29T02:07:33;4.45;;;2.53;;
46439;SDS011;32138;50.966;6.968;2023-07-29T02:09:04;7.90;;;3.10;;
46439;SDS011;32138;50.966;6.968;2023-07-29T02:10:35;5.95;;;3.08;;
46439;SDS011;32138;50.966;6.968;2023-07-29T02:12:06;5.57;;;3.13;;
46439;SDS011;32138;50.966;6.968;2023-07-29T02:13:37;4.72;;;2.72;;
46439;SDS011;32138;50.966;6.968;2023-07-29T02:15:08;3.38;;;2.75;;
46439;SDS011;32138;50.966;6.968;2023-07-29T02:16:39;5.40;;;2.20;;
46439;SDS011;32138;50.966;6.968;2023-07-29T02:18:10;2.58;;;2.20;;
46439;SDS011;32138;50.966;6.968;2023-07-29T02:19:41;9.38;;;4.75;;
46439;SDS011;32138;50.966;6.968;2023-07-29T02:21:11;4.18;;;2.70;;
46439;SDS011;32138;50.966;6.968;2023-07-29T02:22:42;5.03;;;3.47;;
46439;SDS011;32138;50.966;6.968;2023-07-29T02:24:13;5.70;;;3.65;;
46439;SDS011;32138;50.966;6.968;2023-07-29T02:25:43;4.95;;;3.20;;
46439;SDS011;32138;50.966;6.968;2023-07-29T02:27:15;6.65;;;3.10;;
46439;SDS011;32138;50.966;6.968;2023-07-29T02:28:45;6.57;;;3.38;;
46439;SDS011;32138;50.966;6.968;2023-07-29T02:30:16;5.65;;;2.55;;
46439;SDS011;32138;50.966;6.968;2023-07-29T02:31:47;4.78;;;2.38;;
46439;SDS011;32138;50.966;6.968;2023-07-29T02:33:18;3.90;;;2.20;;
46439;SDS011;32138;50.966;6.968;2023-07-29T02:34:48;3.85;;;2.22;;
46439;SDS011;32138;50.966;6.968;2023-07-29T02:36:19;4.97;;;2.42;;
46439;SDS011;32138;50.966;6.968;2023-07-29T02:37:50;6.65;;;2.42;;
46439;SDS011;32138;50.966;6.968;2023-07-29T02:39:21;2.78;;;2.15;;
46439;SDS011;32138;50.966;6.968;2023-07-29T02:40:51;3.42;;;1.90;;
46439;SDS011;32138;50.966;6.968;2023-07-29T02:42:22;6.47;;;2.20;;
46439;SDS011;32138;50.966;6.968;2023-07-29T02:43:53;2.65;;;1.88;;
46439;SDS011;32138;50.966;6.968;2023-07-29T02:45:24;3.92;;;1.88;;
46439;SDS011;32138;50.966;6.968;2023-07-29T02:46:54;4.10;;;2.20;;
46439;SDS011;32138;50.966;6.968;2023-07-29T02:48:25;3.22;;;2.08;;
46439;SDS011;32138;50.966;6.968;2023-07-29T02:49:56;4.72;;;2.10;;
46439;SDS011;32138;50.966;6.968;2023-07-29T02:51:27;4.53;;;2.25;;
46439;SDS011;32138;50.966;6.968;2023-07-29T02:52:58;4.32;;;2.50;;
46439;SDS011;32138;50.966;6.968;2023-07-29T02:54:28;3.25;;;2.28;;
46439;SDS011;32138;50.966;6.968;2023-07-29T02:55:59;3.13;;;2.75;;
46439;SDS011;32138;50.966;6.968;2023-07-29T02:57:30;4.18;;;2.28;;
46439;SDS011;32138;50.966;6.968;2023-07-29T02:59:01;7.15;;;2.22;;
46439;SDS011;32138;50.966;6.968;2023-07-29T03:00:32;3.92;;;2.28;;
46439;SDS011;32138;50.966;6.968;2023-07-29T03:02:03;4.40;;;1.85;;
46439;SDS011;32138;50.966;6.968;2023-07-29T03:03:33;5.47;;;2.10;;
46439;SDS011;32138;50.966;6.968;2023-07-29T03:05:04;4.00;;;1.33;;
46439;SDS011;32138;50.966;6.968;2023-07-29T03:06:35;3.63;;;1.60;;
46439;SDS011;32138;50.966;6.968;2023-07-29T03:08:06;3.80;;;1.70;;
46439;SDS011;32138;50.966;6.968;2023-07-29T03:09:37;3.10;;;1.52;;
46439;SDS011;32138;50.966;6.968;2023-07-29T03:11:09;2.53;;;1.70;;
46439;SDS011;32138;50.966;6.968;2023-07-29T03:12:41;4.10;;;1.42;;
46439;SDS011;32138;50.966;6.968;2023-07-29T03:14:12;2.03;;;1.45;;
46439;SDS011;32138;50.966;6.968;2023-07-29T03:15:43;1.95;;;1.23;;
46439;SDS011;32138;50.966;6.968;2023-07-29T03:17:13;3.05;;;1.08;;
46439;SDS011;32138;50.966;6.968;2023-07-29T03:18:44;4.35;;;1.50;;
46439;SDS011;32138;50.966;6.968;2023-07-29T03:20:15;1.75;;;1.20;;
46439;SDS011;32138;50.966;6.968;2023-07-29T03:21:47;5.72;;;1.63;;
46439;SDS011;32138;50.966;6.968;2023-07-29T03:23:19;4.18;;;1.15;;
46439;SDS011;32138;50.966;6.968;2023-07-29T03:24:50;3.05;;;1.55;;
46439;SDS011;32138;50.966;6.968;2023-07-29T03:26:20;1.95;;;1.13;;
46439;SDS011;32138;50.966;6.968;2023-07-29T03:27:51;1.92;;;1.20;;
46439;SDS011;32138;50.966;6.968;2023-07-29T03:29:22;1.83;;;1.17;;
46439;SDS011;32138;50.966;6.968;2023-07-29T03:30:53;2.72;;;1.40;;
46439;SDS011;32138;50.966;6.968;2023-07-29T03:32:25;5.93;;;1.80;;
46439;SDS011;32138;50.966;6.968;2023-07-29T03:33:55;4.50;;;1.50;;
46439;SDS011;32138;50.966;6.968;2023-07-29T03:35:26;2.60;;;1.25;;
46439;SDS011;32138;50.966;6.968;2023-07-29T03:36:57;3.42;;;1.55;;
46439;SDS011;32138;50.966;6.968;2023-07-29T03:38:28;4.05;;;1.50;;
46439;SDS011;32138;50.966;6.968;2023-07-29T03:39:58;2.97;;;1.63;;
46439;SDS011;32138;50.966;6.968;2023-07-29T03:41:29;2.17;;;1.20;;
46439;SDS011;32138;50.966;6.968;2023-07-29T03:43:00;3.72;;;1.30;;
46439;SDS011;32138;50.966;6.968;2023-07-29T03:44:30;2.97;;;1.88;;
46439;SDS011;32138;50.966;6.968;2023-07-29T03:46:01;4.47;;;1.90;;
46439;SDS011;32138;50.966;6.968;2023-07-29T03:47:32;2.97;;;1.95;;
46439;SDS011;32138;50.966;6.968;2023-07-29T03:49:03;2.95;;;1.30;;
46439;SDS011;32138;50.966;6.968;2023-07-29T03:50:34;3.05;;;1.30;;
46439;SDS011;32138;50.966;6.968;2023-07-29T03:52:06;1.85;;;1.40;;
46439;SDS011;32138;50.966;6.968;2023-07-29T03:53:37;2.65;;;1.38;;
46439;SDS011;32138;50.966;6.968;2023-07-29T03:55:08;4.28;;;1.70;;
46439;SDS011;32138;50.966;6.968;2023-07-29T03:56:39;2.88;;;1.83;;
46439;SDS011;32138;50.966;6.968;2023-07-29T03:58:09;4.07;;;1.40;;
46439;SDS011;32138;50.966;6.968;2023-07-29T03:59:42;3.20;;;1.45;;
46439;SDS011;32138;50.966;6.968;2023-07-29T04:01:13;3.75;;;1.63;;
46439;SDS011;32138;50.966;6.968;2023-07-29T04:02:44;2.72;;;1.05;;
46439;SDS011;32138;50.966;6.968;2023-07-29T04:04:15;2.85;;;1.42;;
46439;SDS011;32138;50.966;6.968;2023-07-29T04:05:46;4.28;;;1.70;;
46439;SDS011;32138;50.966;6.968;2023-07-29T04:07:17;1.88;;;1.35;;
46439;SDS011;32138;50.966;6.968;2023-07-29T04:08:48;2.42;;;1.38;;
46439;SDS011;32138;50.966;6.968;2023-07-29T04:10:19;4.47;;;1.73;;
46439;SDS011;32138;50.966;6.968;2023-07-29T04:11:50;3.88;;;1.75;;
46439;SDS011;32138;50.966;6.968;2023-07-29T04:13:21;3.97;;;1.55;;
46439;SDS011;32138;50.966;6.968;2023-07-29T04:14:52;3.60;;;1.35;;
46439;SDS011;32138;50.966;6.968;2023-07-29T04:16:23;3.38;;;1.83;;
46439;SDS011;32138;50.966;6.968;2023-07-29T04:17:53;3.67;;;1.83;;
46439;SDS011;32138;50.966;6.968;2023-07-29T04:19:24;4.22;;;1.55;;
46439;SDS011;32138;50.966;6.968;2023-07-29T04:20:55;2.70;;;1.38;;
46439;SDS011;32138;50.966;6.968;2023-07-29T04:22:26;1.85;;;1.50;;
46439;SDS011;32138;50.966;6.968;2023-07-29T04:23:56;4.57;;;1.85;;
46439;SDS011;32138;50.966;6.968;2023-07-29T04:25:27;4.20;;;1.60;;
46439;SDS011;32138;50.966;6.968;2023-07-29T04:26:58;4.00;;;1.35;;
46439;SDS011;32138;50.966;6.968;2023-07-29T04:28:29;2.38;;;1.80;;
46439;SDS011;32138;50.966;6.968;2023-07-29T04:29:59;2.90;;;1.60;;
46439;SDS011;32138;50.966;6.968;2023-07-29T04:31:30;4.32;;;2.28;;
46439;SDS011;32138;50.966;6.968;2023-07-29T04:33:01;4.22;;;1.63;;
46439;SDS011;32138;50.966;6.968;2023-07-29T04:34:31;2.85;;;2.03;;
46439;SDS011;32138;50.966;6.968;2023-07-29T04:36:02;3.60;;;2.08;;
46439;SDS011;32138;50.966;6.968;2023-07-29T04:37:34;4.63;;;2.05;;
46439;SDS011;32138;50.966;6.968;2023-07-29T04:39:04;2.63;;;1.88;;
46439;SDS011;32138;50.966;6.968;2023-07-29T04:40:35;2.85;;;1.85;;
46439;SDS011;32138;50.966;6.968;2023-07-29T04:42:06;5.05;;;2.20;;
46439;SDS011;32138;50.966;6.968;2023-07-29T04:43:37;3.55;;;2.10;;
46439;SDS011;32138;50.966;6.968;2023-07-29T04:45:07;3.33;;;2.28;;
46439;SDS011;32138;50.966;6.968;2023-07-29T04:46:38;4.53;;;2.08;;
46439;SDS011;32138;50.966;6.968;2023-07-29T04:48:09;4.28;;;2.35;;
46439;SDS011;32138;50.966;6.968;2023-07-29T04:49:40;4.57;;;2.33;;
46439;SDS011;32138;50.966;6.968;2023-07-29T04:51:10;4.65;;;1.80;;
46439;SDS011;32138;50.966;6.968;2023-07-29T04:52:41;3.20;;;2.30;;
46439;SDS011;32138;50.966;6.968;2023-07-29T04:54:12;4.28;;;2.92;;
46439;SDS011;32138;50.966;6.968;2023-07-29T04:55:43;3.88;;;2.55;;
46439;SDS011;32138;50.966;6.968;2023-07-29T04:57:13;2.88;;;2.33;;
46439;SDS011;32138;50.966;6.968;2023-07-29T04:58:44;5.95;;;2.50;;
46439;SDS011;32138;50.966;6.968;2023-07-29T05:00:15;3.70;;;2.45;;
46439;SDS011;32138;50.966;6.968;2023-07-29T05:01:46;3.13;;;2.00;;
46439;SDS011;32138;50.966;6.968;2023-07-29T05:03:17;4.70;;;2.33;;
46439;SDS011;32138;50.966;6.968;2023-07-29T05:04:48;7.35;;;3.53;;
46439;SDS011;32138;50.966;6.968;2023-07-29T05:06:19;6.50;;;2.58;;
46439;SDS011;32138;50.966;6.968;2023-07-29T05:07:49;6.55;;;2.80;;
46439;SDS011;32138;50.966;6.968;2023-07-29T05:09:20;5.18;;;2.97;;
46439;SDS011;32138;50.966;6.968;2023-07-29T05:10:51;5.55;;;2.40;;
46439;SDS011;32138;50.966;6.968;2023-07-29T05:12:23;3.08;;;2.67;;
46439;SDS011;32138;50.966;6.968;2023-07-29T05:13:53;6.57;;;3.30;;
46439;SDS011;32138;50.966;6.968;2023-07-29T05:15:24;3.20;;;2.80;;
46439;SDS011;32138;50.966;6.968;2023-07-29T05:16:55;7.90;;;3.80;;
46439;SDS011;32138;50.966;6.968;2023-07-29T05:18:26;3.75;;;3.13;;
46439;SDS011;32138;50.966;6.968;2023-07-29T05:19:56;4.97;;;2.70;;
46439;SDS011;32138;50.966;6.968;2023-07-29T05:21:27;5.13;;;2.92;;
46439;SDS011;32138;50.966;6.968;2023-07-29T05:22:58;5.72;;;3.42;;
46439;SDS011;32138;50.966;6.968;2023-07-29T05:24:28;4.45;;;3.03;;
46439;SDS011;32138;50.966;6.968;2023-07-29T05:25:59;5.15;;;3.70;;
46439;SDS011;32138;50.966;6.968;2023-07-29T05:27:30;4.47;;;3.55;;
46439;SDS011;32138;50.966;6.968;2023-07-29T05:29:01;4.85;;;4.05;;
46439;SDS011;32138;50.966;6.968;2023-07-29T05:30:32;5.15;;;3.80;;
46439;SDS011;32138;50.966;6.968;2023-07-29T05:32:07;6.30;;;3.65;;
46439;SDS011;32138;50.966;6.968;2023-07-29T05:33:37;5.50;;;3.83;;
46439;SDS011;32138;50.966;6.968;2023-07-29T05:35:08;5.22;;;3.45;;
46439;SDS011;32138;50.966;6.968;2023-07-29T05:36:40;5.93;;;4.07;;
46439;SDS011;32138;50.966;6.968;2023-07-29T05:38:11;6.63;;;3.80;;
46439;SDS011;32138;50.966;6.968;2023-07-29T05:39:42;6.07;;;3.00;;
46439;SDS011;32138;50.966;6.968;2023-07-29T05:41:12;5.72;;;3.33;;
46439;SDS011;32138;50.966;6.968;2023-07-29T05:42:43;4.32;;;3.70;;
46439;SDS011;32138;50.966;6.968;2023-07-29T05:44:15;4.25;;;3.85;;
46439;SDS011;32138;50.966;6.968;2023-07-29T05:45:46;8.15;;;4.07;;
46439;SDS011;32138;50.966;6.968;2023-07-29T05:47:16;5.07;;;3.97;;
46439;SDS011;32138;50.966;6.968;2023-07-29T05:48:47;5.63;;;3.63;;
46439;SDS011;32138;50.966;6.968;2023-07-29T05:50:18;4.72;;;3.47;;
46439;SDS011;32138;50.966;6.968;2023-07-29T05:51:48;5.57;;;3.08;;
46439;SDS011;32138;50.966;6.968;2023-07-29T05:53:21;4.95;;;3.60;;
46439;SDS011;32138;50.966;6.968;2023-07-29T05:54:52;6.20;;;3.28;;
46439;SDS011;32138;50.966;6.968;2023-07-29T05:56:23;8.27;;;4.65;;
46439;SDS011;32138;50.966;6.968;2023-07-29T05:57:54;7.40;;;3.38;;
46439;SDS011;32138;50.966;6.968;2023-07-29T05:59:25;4.53;;;2.83;;
46439;SDS011;32138;50.966;6.968;2023-07-29T06:00:59;5.10;;;3.00;;
46439;SDS011;32138;50.966;6.968;2023-07-29T06:02:29;3.78;;;3.20;;
46439;SDS011;32138;50.966;6.968;2023-07-29T06:04:00;4.72;;;3.20;;
46439;SDS011;32138;50.966;6.968;2023-07-29T06:05:31;3.53;;;3.03;;
46439;SDS011;32138;50.966;6.968;2023-07-29T06:07:02;5.53;;;3.17;;
46439;SDS011;32138;50.966;6.968;2023-07-29T06:08:33;5.63;;;3.22;;
46439;SDS011;32138;50.966;6.968;2023-07-29T06:10:04;4.20;;;2.95;;
46439;SDS011;32138;50.966;6.968;2023-07-29T06:11:35;5.00;;;3.40;;
46439;SDS011;32138;50.966;6.968;2023-07-29T06:13:06;7.03;;;3.78;;
46439;SDS011;32138;50.966;6.968;2023-07-29T06:14:37;5.10;;;3.38;;
46439;SDS011;32138;50.966;6.968;2023-07-29T06:16:07;4.45;;;2.92;;
46439;SDS011;32138;50.966;6.968;2023-07-29T06:17:38;10.63;;;4.20;;
46439;SDS011;32138;50.966;6.968;2023-07-29T06:19:10;4.28;;;3.17;;
46439;SDS011;32138;50.966;6.968;2023-07-29T06:20:41;6.07;;;3.13;;
46439;SDS011;32138;50.966;6.968;2023-07-29T06:22:12;6.28;;;3.28;;
46439;SDS011;32138;50.966;6.968;2023-07-29T06:23:43;4.20;;;2.83;;
46439;SDS011;32138;50.966;6.968;2023-07-29T06:25:13;5.75;;;3.70;;
46439;SDS011;32138;50.966;6.968;2023-07-29T06:26:44;5.78;;;3.33;;
46439;SDS011;32138;50.966;6.968;2023-07-29T06:28:15;4.88;;;3.50;;
46439;SDS011;32138;50.966;6.968;2023-07-29T06:29:46;4.38;;;3.00;;
46439;SDS011;32138;50.966;6.968;2023-07-29T06:31:16;5.68;;;3.35;;
46439;SDS011;32138;50.966;6.968;2023-07-29T06:32:47;6.38;;;2.90;;
46439;SDS011;32138;50.966;6.968;2023-07-29T06:34:18;4.82;;;2.53;;
46439;SDS011;32138;50.966;6.968;2023-07-29T06:35:49;4.10;;;2.47;;
46439;SDS011;32138;50.966;6.968;2023-07-29T06:37:19;7.30;;;3.50;;
46439;SDS011;32138;50.966;6.968;2023-07-29T06:38:50;3.25;;;2.08;;
46439;SDS011;32138;50.966;6.968;2023-07-29T06:40:21;2.78;;;2.40;;
46439;SDS011;32138;50.966;6.968;2023-07-29T06:41:52;4.35;;;2.50;;
46439;SDS011;32138;50.966;6.968;2023-07-29T06:43:23;4.65;;;2.08;;
46439;SDS011;32138;50.966;6.968;2023-07-29T06:44:53;6.97;;;2.20;;
46439;SDS011;32138;50.966;6.968;2023-07-29T06:46:24;6.10;;;2.28;;
46439;SDS011;32138;50.966;6.968;2023-07-29T06:47:55;4.80;;;2.70;;
46439;SDS011;32138;50.966;6.968;2023-07-29T06:49:26;5.50;;;1.92;;
46439;SDS011;32138;50.966;6.968;2023-07-29T06:50:56;5.90;;;2.45;;
46439;SDS011;32138;50.966;6.968;2023-07-29T06:52:30;8.15;;;2.22;;
46439;SDS011;32138;50.966;6.968;2023-07-29T06:54:01;5.30;;;2.20;;
46439;SDS011;32138;50.966;6.968;2023-07-29T06:55:32;2.75;;;1.77;;
46439;SDS011;32138;50.966;6.968;2023-07-29T06:57:03;4.55;;;1.83;;
46439;SDS011;32138;50.966;6.968;2023-07-29T06:58:35;5.85;;;2.17;;
46439;SDS011;32138;50.966;6.968;2023-07-29T07:00:06;4.03;;;1.85;;
46439;SDS011;32138;50.966;6.968;2023-07-29T07:01:39;3.17;;;1.67;;
46439;SDS011;32138;50.966;6.968;2023-07-29T07:03:09;3.22;;;1.80;;
46439;SDS011;32138;50.966;6.968;2023-07-29T07:04:40;6.70;;;2.45;;
46439;SDS011;32138;50.966;6.968;2023-07-29T07:06:11;2.83;;;1.83;;
46439;SDS011;32138;50.966;6.968;2023-07-29T07:07:42;3.45;;;2.25;;
46439;SDS011;32138;50.966;6.968;2023-07-29T07:09:12;4.18;;;1.73;;
46439;SDS011;32138;50.966;6.968;2023-07-29T07:10:43;2.75;;;1.50;;
46439;SDS011;32138;50.966;6.968;2023-07-29T07:12:14;5.40;;;2.13;;
46439;SDS011;32138;50.966;6.968;2023-07-29T07:13:45;4.25;;;1.77;;
46439;SDS011;32138;50.966;6.968;2023-07-29T07:15:15;4.65;;;1.90;;
46439;SDS011;32138;50.966;6.968;2023-07-29T07:16:46;4.35;;;2.10;;
46439;SDS011;32138;50.966;6.968;2023-07-29T07:18:17;4.80;;;2.10;;
46439;SDS011;32138;50.966;6.968;2023-07-29T07:19:48;5.03;;;2.38;;
46439;SDS011;32138;50.966;6.968;2023-07-29T07:21:18;9.85;;;3.70;;
46439;SDS011;32138;50.966;6.968;2023-07-29T07:22:49;7.00;;;2.60;;
46439;SDS011;32138;50.966;6.968;2023-07-29T07:24:20;4.57;;;2.65;;
46439;SDS011;32138;50.966;6.968;2023-07-29T07:25:51;7.55;;;6.40;;
46439;SDS011;32138;50.966;6.968;2023-07-29T07:27:21;9.68;;;5.90;;
46439;SDS011;32138;50.966;6.968;2023-07-29T07:28:53;10.13;;;3.65;;
46439;SDS011;32138;50.966;6.968;2023-07-29T07:30:24;5.80;;;2.35;;
46439;SDS011;32138;50.966;6.968;2023-07-29T07:31:55;4.00;;;2.00;;
46439;SDS011;32138;50.966;6.968;2023-07-29T07:33:26;3.25;;;2.17;;
46439;SDS011;32138;50.966;6.968;2023-07-29T07:34:57;6.57;;;2.22;;
46439;SDS011;32138;50.966;6.968;2023-07-29T07:36:28;4.38;;;2.42;;
46439;SDS011;32138;50.966;6.968;2023-07-29T07:37:59;2.60;;;1.52;;
46439;SDS011;32138;50.966;6.968;2023-07-29T07:39:32;6.18;;;2.15;;
46439;SDS011;32138;50.966;6.968;2023-07-29T07:41:02;4.82;;;1.60;;
46439;SDS011;32138;50.966;6.968;2023-07-29T07:42:33;3.10;;;1.88;;
46439;SDS011;32138;50.966;6.968;2023-07-29T07:44:04;7.32;;;1.77;;
46439;SDS011;32138;50.966;6.968;2023-07-29T07:45:35;5.22;;;1.85;;
46439;SDS011;32138;50.966;6.968;2023-07-29T07:47:06;5.00;;;1.38;;
46439;SDS011;32138;50.966;6.968;2023-07-29T07:48:37;5.40;;;1.80;;
46439;SDS011;32138;50.966;6.968;2023-07-29T07:50:08;4.70;;;1.70;;
46439;SDS011;32138;50.966;6.968;2023-07-29T07:51:39;4.90;;;1.75;;
46439;SDS011;32138;50.966;6.968;2023-07-29T07:53:10;6.05;;;1.50;;
46439;SDS011;32138;50.966;6.968;2023-07-29T07:54:41;6.18;;;1.63;;
46439;SDS011;32138;50.966;6.968;2023-07-29T07:56:11;4.03;;;1.75;;
46439;SDS011;32138;50.966;6.968;2023-07-29T07:57:42;6.00;;;1.58;;
46439;SDS011;32138;50.966;6.968;2023-07-29T07:59:13;3.92;;;1.90;;
46439;SDS011;32138;50.966;6.968;2023-07-29T08:00:43;4.30;;;1.77;;
46439;SDS011;32138;50.966;6.968;2023-07-29T08:02:14;4.28;;;1.35;;
46439;SDS011;32138;50.966;6.968;2023-07-29T08:03:45;3.97;;;2.08;;
46439;SDS011;32138;50.966;6.968;2023-07-29T08:05:16;3.72;;;1.63;;
46439;SDS011;32138;50.966;6.968;2023-07-29T08:06:46;2.15;;;1.77;;
46439;SDS011;32138;50.966;6.968;2023-07-29T08:08:17;5.40;;;1.58;;
46439;SDS011;32138;50.966;6.968;2023-07-29T08:09:48;6.53;;;1.90;;
46439;SDS011;32138;50.966;6.968;2023-07-29T08:11:18;5.10;;;1.58;;
46439;SDS011;32138;50.966;6.968;2023-07-29T08:12:49;3.28;;;1.80;;
46439;SDS011;32138;50.966;6.968;2023-07-29T08:14:20;2.90;;;1.52;;
46439;SDS011;32138;50.966;6.968;2023-07-29T08:15:51;3.53;;;2.05;;
46439;SDS011;32138;50.966;6.968;2023-07-29T08:17:23;3.45;;;1.60;;
46439;SDS011;32138;50.966;6.968;2023-07-29T08:18:53;5.45;;;1.52;;
46439;SDS011;32138;50.966;6.968;2023-07-29T08:20:24;4.07;;;1.95;;
46439;SDS011;32138;50.966;6.968;2023-07-29T08:21:55;1.95;;;1.40;;
46439;SDS011;32138;50.966;6.968;2023-07-29T08:23:26;3.33;;;2.28;;
46439;SDS011;32138;50.966;6.968;2023-07-29T08:24:56;3.70;;;1.60;;
46439;SDS011;32138;50.966;6.968;2023-07-29T08:26:27;3.75;;;1.85;;
46439;SDS011;32138;50.966;6.968;2023-07-29T08:27:58;5.80;;;1.95;;
46439;SDS011;32138;50.966;6.968;2023-07-29T08:29:28;6.65;;;1.55;;
46439;SDS011;32138;50.966;6.968;2023-07-29T08:30:59;7.30;;;2.03;;
46439;SDS011;32138;50.966;6.968;2023-07-29T08:32:30;3.63;;;1.55;;
46439;SDS011;32138;50.966;6.968;2023-07-29T08:34:01;6.43;;;1.73;;
46439;SDS011;32138;50.966;6.968;2023-07-29T08:35:32;2.85;;;1.85;;
46439;SDS011;32138;50.966;6.968;2023-07-29T08:37:03;3.08;;;1.42;;
46439;SDS011;32138;50.966;6.968;2023-07-29T08:38:33;3.03;;;1.38;;
46439;SDS011;32138;50.966;6.968;2023-07-29T08:40:04;4.28;;;2.00;;
46439;SDS011;32138;50.966;6.968;2023-07-29T08:41:56;5.18;;;1.80;;
46439;SDS011;32138;50.966;6.968;2023-07-29T08:43:34;5.72;;;1.77;;
46439;SDS011;32138;50.966;6.968;2023-07-29T08:45:09;4.38;;;1.80;;
46439;SDS011;32138;50.966;6.968;2023-07-29T08:46:41;3.00;;;1.42;;
46439;SDS011;32138;50.966;6.968;2023-07-29T08:48:12;5.45;;;1.73;;
46439;SDS011;32138;50.966;6.968;2023-07-29T08:49:47;2.45;;;1.27;;
46439;SDS011;32138;50.966;6.968;2023-07-29T08:51:18;4.15;;;1.63;;
46439;SDS011;32138;50.966;6.968;2023-07-29T08:52:51;7.32;;;1.92;;
46439;SDS011;32138;50.966;6.968;2023-07-29T08:54:23;3.00;;;1.50;;
46439;SDS011;32138;50.966;6.968;2023-07-29T08:55:54;3.17;;;1.23;;
46439;SDS011;32138;50.966;6.968;2023-07-29T08:57:25;4.20;;;1.80;;
46439;SDS011;32138;50.966;6.968;2023-07-29T08:58:57;2.53;;;1.17;;
46439;SDS011;32138;50.966;6.968;2023-07-29T09:00:30;2.22;;;1.35;;
46439;SDS011;32138;50.966;6.968;2023-07-29T09:02:01;3.22;;;1.30;;
46439;SDS011;32138;50.966;6.968;2023-07-29T09:03:32;3.88;;;1.63;;
46439;SDS011;32138;50.966;6.968;2023-07-29T09:05:03;4.13;;;1.35;;
46439;SDS011;32138;50.966;6.968;2023-07-29T09:06:35;3.00;;;1.67;;
46439;SDS011;32138;50.966;6.968;2023-07-29T09:08:08;3.85;;;1.50;;
46439;SDS011;32138;50.966;6.968;2023-07-29T09:09:39;5.75;;;2.03;;
46439;SDS011;32138;50.966;6.968;2023-07-29T09:11:09;2.80;;;1.80;;
46439;SDS011;32138;50.966;6.968;2023-07-29T09:12:43;4.07;;;1.30;;
46439;SDS011;32138;50.966;6.968;2023-07-29T09:14:14;4.55;;;1.30;;
46439;SDS011;32138;50.966;6.968;2023-07-29T09:15:45;2.70;;;1.50;;
46439;SDS011;32138;50.966;6.968;2023-07-29T09:17:16;2.40;;;1.45;;
46439;SDS011;32138;50.966;6.968;2023-07-29T09:18:50;1.92;;;0.85;;